This is the latest recevied weather packets stored in our database for station/object OE5OVL-13. If no packets are shown the sender has not sent any weather packets the latest 10 day(s).
| Time | Temp. | Humidity | Pressure | Rain* | Wind** | Luminosity | Snow |
|---|---|---|---|---|---|---|---|
| 1777207354 | 24.44° C | 27% | 734.2 hPa | 0 mm | - | - | - |
| 1777206442 | 22.78° C | 28% | 732.4 hPa | 0 mm | - | - | - |
| 1777205531 | 22.22° C | 29% | 731.7 hPa | 0 mm | - | - | - |
| 1777204619 | 22.22° C | 30% | 731.4 hPa | 0 mm | - | - | - |
| 1777202795 | 21.11° C | 32% | 730.5 hPa | 0 mm | - | - | - |
| 1777201883 | 20° C | 33% | 728.8 hPa | 0 mm | - | - | - |
| 1777200972 | 19.44° C | 35% | 728.7 hPa | 0 mm | - | - | - |
| 1777200060 | 18.89° C | 37% | 727.9 hPa | 0 mm | - | - | - |
| 1777199148 | 18.89° C | 37% | 727.6 hPa | 0 mm | - | - | - |
| 1777198236 | 18.33° C | 38% | 726.9 hPa | 0 mm | - | - | - |
| 1777197325 | 17.78° C | 38% | 726.6 hPa | 0 mm | - | - | - |
| 1777196413 | 17.78° C | 40% | 726.2 hPa | 0 mm | - | - | - |
| 1777195501 | 16.67° C | 42% | 725.5 hPa | 0 mm | - | - | - |
| 1777194589 | 16.11° C | 41% | 724.7 hPa | 0 mm | - | - | - |
| 1777193677 | 16.11° C | 44% | 724.6 hPa | 0 mm | - | - | - |
| 1777192766 | 15.56° C | 45% | 723.9 hPa | 0 mm | - | - | - |
| 1777191854 | 15° C | 46% | 723.5 hPa | 0 mm | - | - | - |
| 1777190942 | 14.44° C | 48% | 722.9 hPa | 0 mm | - | - | - |
| 1777190031 | 14.44° C | 48% | 722.4 hPa | 0 mm | - | - | - |
| 1777188207 | 13.33° C | 51% | 721.1 hPa | 0 mm | - | - | - |
| 1777187295 | 12.22° C | 53% | 720.4 hPa | 0 mm | - | - | - |
| 1777186384 | 11.67° C | 56% | 719.6 hPa | 0 mm | - | - | - |
| 1777184560 | 10.56° C | 60% | 718.2 hPa | 0 mm | - | - | - |
| 1777183648 | 10.56° C | 59% | 717.9 hPa | 0 mm | - | - | - |
| 1777182737 | 10° C | 63% | 717.6 hPa | 0 mm | - | - | - |
* Rain latest hour (hover to see other rain measurements)
** Current wind speed in m/s (hover to see current wind gust speed)